Time;durP1;ratioP1;P1;durP2;ratioP2;P2;SDS_P1;SDS_P2;PMS_P1;PMS_P2;Temp;Humidity;BMP_temperature;BMP_pressure;BME280_temperature;BME280_humidity;BME280_pressure;Samples;Min_cycle;Max_cycle;Signal;HPM_P1;HPM_P2
2023/03/02 00:01:18;;;;;;;27.00;15.73;;;23.10;38.10;;;;;;6258594;27;83778;-57
2023/03/02 00:04:19;;;;;;;25.60;16.17;;;23.10;37.90;;;;;;6258587;27;82932;-57
2023/03/02 00:07:20;;;;;;;28.85;16.90;;;23.10;37.80;;;;;;6248534;27;86428;-58
2023/03/02 00:10:20;;;;;;;27.58;16.58;;;23.10;38.00;;;;;;6251215;27;83083;-58
2023/03/02 00:13:21;;;;;;;26.08;15.57;;;23.10;37.90;;;;;;6270922;27;82995;-57
2023/03/02 00:16:21;;;;;;;25.70;16.13;;;23.10;37.80;;;;;;6268919;27;83505;-58
2023/03/02 00:19:22;;;;;;;25.42;15.60;;;23.10;37.90;;;;;;6272941;27;83334;-57
2023/03/02 00:22:22;;;;;;;24.92;16.27;;;23.10;37.90;;;;;;6272821;27;83836;-58
2023/03/02 00:25:23;;;;;;;26.70;16.45;;;23.10;38.10;;;;;;6271454;27;83151;-56
2023/03/02 00:28:23;;;;;;;30.33;17.38;;;23.10;38.00;;;;;;6271711;27;83112;-56
2023/03/02 00:31:24;;;;;;;33.40;17.90;;;23.00;37.80;;;;;;6259861;27;89384;-58
2023/03/02 00:34:24;;;;;;;29.58;17.35;;;23.00;37.90;;;;;;6276545;27;83091;-59
2023/03/02 00:37:25;;;;;;;28.42;17.23;;;23.00;38.00;;;;;;6277310;27;83767;-58
2023/03/02 00:40:25;;;;;;;28.05;18.48;;;23.00;38.00;;;;;;6261470;27;86109;-57
2023/03/02 00:43:26;;;;;;;28.08;17.88;;;23.00;37.80;;;;;;6257516;27;85718;-57
2023/03/02 00:46:27;;;;;;;28.77;17.63;;;23.00;37.80;;;;;;6273598;27;84113;-59
2023/03/02 00:49:28;;;;;;;30.83;17.60;;;23.00;38.10;;;;;;6275858;27;83460;-55
2023/03/02 00:52:28;;;;;;;28.83;17.73;;;23.00;38.10;;;;;;6276350;27;83090;-57
2023/03/02 00:55:29;;;;;;;30.05;18.42;;;23.00;38.20;;;;;;6274122;27;83674;-56
2023/03/02 00:58:30;;;;;;;29.73;18.17;;;22.90;38.10;;;;;;6269878;27;82969;-57
2023/03/02 01:01:31;;;;;;;31.13;18.33;;;22.90;38.20;;;;;;6254809;27;84111;-57
2023/03/02 01:04:32;;;;;;;28.45;17.50;;;22.90;38.30;;;;;;6272715;27;84104;-57
2023/03/02 01:07:32;;;;;;;31.98;18.70;;;22.90;38.00;;;;;;6273876;27;86509;-57
2023/03/02 01:10:33;;;;;;;28.83;18.02;;;23.00;37.90;;;;;;6254876;27;85751;-56
2023/03/02 01:13:35;;;;;;;34.55;19.10;;;22.90;38.20;;;;;;6263180;27;83552;-56
2023/03/02 01:16:36;;;;;;;30.05;18.85;;;22.90;38.10;;;;;;6266900;27;83101;-57
2023/03/02 01:19:36;;;;;;;29.80;18.17;;;23.00;38.00;;;;;;6243200;27;86081;-60
2023/03/02 01:22:37;;;;;;;30.23;18.50;;;22.90;38.20;;;;;;6245015;27;85975;-62
2023/03/02 01:25:38;;;;;;;32.90;19.30;;;22.90;38.10;;;;;;6274360;27;82920;-61
2023/03/02 01:28:39;;;;;;;31.30;18.45;;;22.90;37.70;;;;;;6268748;27;87922;-60
2023/03/02 01:31:39;;;;;;;32.97;18.50;;;22.90;38.10;;;;;;6274844;27;83042;-60
2023/03/02 01:34:40;;;;;;;30.25;18.85;;;22.90;38.20;;;;;;6276150;27;83283;-59
2023/03/02 01:37:40;;;;;;;29.27;18.27;;;22.90;38.30;;;;;;6274928;27;84156;-60
2023/03/02 01:40:41;;;;;;;29.15;18.95;;;22.90;39.10;;;;;;6279302;27;83089;-59
2023/03/02 01:43:41;;;;;;;27.52;17.85;;;23.00;38.40;;;;;;6266543;27;83405;-60
2023/03/02 01:46:42;;;;;;;28.70;17.35;;;22.90;38.50;;;;;;6274379;27;83139;-59
2023/03/02 01:49:42;;;;;;;26.83;17.52;;;22.90;38.20;;;;;;6274595;27;85183;-60
2023/03/02 01:52:43;;;;;;;29.90;18.42;;;22.90;38.10;;;;;;6274139;27;83306;-58
2023/03/02 01:55:44;;;;;;;28.20;17.63;;;22.90;38.30;;;;;;6274879;27;83113;-59
2023/03/02 01:58:45;;;;;;;34.17;19.25;;;22.90;38.50;;;;;;6242967;27;86014;-61
2023/03/02 02:01:45;;;;;;;29.05;17.48;;;22.90;38.30;;;;;;6274840;27;83884;-63
2023/03/02 02:04:46;;;;;;;31.55;18.13;;;22.90;38.20;;;;;;6275402;27;84765;-62
2023/03/02 02:07:47;;;;;;;29.40;17.98;;;22.90;38.20;;;;;;6274927;27;83227;-62
2023/03/02 02:10:48;;;;;;;27.92;17.95;;;22.90;38.20;;;;;;6273642;27;83282;-63
2023/03/02 02:13:49;;;;;;;31.58;18.70;;;22.90;37.80;;;;;;6254595;27;85706;-64
2023/03/02 02:16:49;;;;;;;34.30;19.63;;;22.90;37.90;;;;;;6250568;27;84195;-61
2023/03/02 02:19:50;;;;;;;30.38;18.88;;;22.90;37.80;;;;;;6266575;27;82918;-60
2023/03/02 02:22:50;;;;;;;29.98;19.10;;;22.90;37.70;;;;;;6255826;27;84336;-60
2023/03/02 02:25:51;;;;;;;30.02;18.67;;;22.90;37.60;;;;;;6263585;27;82950;-60
2023/03/02 02:28:56;;;;;;;29.88;18.40;;;22.90;37.60;;;;;;6249452;27;85823;-59
2023/03/02 02:31:57;;;;;;;28.50;18.00;;;22.90;37.40;;;;;;6268633;27;84725;-59
2023/03/02 02:34:58;;;;;;;29.17;18.55;;;22.80;37.50;;;;;;6254535;27;85418;-65
2023/03/02 02:37:59;;;;;;;30.38;19.13;;;22.90;37.30;;;;;;6274152;27;83147;-64
2023/03/02 02:40:59;;;;;;;29.73;18.90;;;22.80;37.40;;;;;;6277178;27;83043;-65
2023/03/02 02:44:04;;;;;;;31.73;18.38;;;22.80;37.40;;;;;;6255873;27;85671;-61
2023/03/02 02:47:06;;;;;;;31.63;19.17;;;22.80;37.50;;;;;;6274104;27;84023;-62
2023/03/02 02:50:06;;;;;;;28.30;18.90;;;22.80;37.70;;;;;;6273339;27;82749;-62
2023/03/02 02:53:07;;;;;;;31.27;18.98;;;22.80;37.40;;;;;;6274088;27;83896;-64
2023/03/02 02:56:07;;;;;;;35.10;19.15;;;22.80;37.40;;;;;;6250470;27;85898;-63
2023/03/02 02:59:08;;;;;;;30.10;18.73;;;22.80;37.50;;;;;;6273490;27;84244;-65
2023/03/02 03:02:09;;;;;;;30.83;19.25;;;22.80;37.20;;;;;;6274289;27;82895;-63
2023/03/02 03:05:09;;;;;;;29.98;18.73;;;22.80;37.60;;;;;;6253898;27;83303;-64
2023/03/02 03:08:10;;;;;;;30.15;18.65;;;22.80;37.90;;;;;;6261470;27;82838;-64
2023/03/02 03:11:12;;;;;;;33.17;18.98;;;22.80;38.00;;;;;;6246765;27;85897;-64
2023/03/02 03:14:14;;;;;;;34.58;19.08;;;22.80;38.30;;;;;;6270086;27;83241;-63
2023/03/02 03:17:16;;;;;;;34.22;19.25;;;22.80;38.20;;;;;;6255569;27;84928;-64
2023/03/02 03:20:24;;;;;;;33.35;19.92;;;22.70;38.50;;;;;;6252579;27;84742;-64
2023/03/02 03:23:24;;;;;;;36.17;19.88;;;22.80;39.00;;;;;;6255144;27;86392;-63
2023/03/02 03:26:25;;;;;;;31.67;20.50;;;22.80;38.60;;;;;;6254791;27;86070;-63
2023/03/02 03:29:25;;;;;;;31.77;19.08;;;22.80;38.60;;;;;;6272630;27;82885;-63
2023/03/02 03:32:33;;;;;;;33.88;19.80;;;22.80;38.40;;;;;;6261639;27;83974;-63
2023/03/02 03:35:35;;;;;;;35.15;21.63;;;22.80;38.40;;;;;;6246773;27;85224;-65
2023/03/02 03:38:36;;;;;;;31.40;18.83;;;22.80;38.30;;;;;;6269942;27;84009;-62
2023/03/02 03:41:37;;;;;;;31.75;20.17;;;22.80;38.20;;;;;;6274513;27;83398;-64
2023/03/02 03:44:37;;;;;;;32.33;20.35;;;22.70;38.40;;;;;;6272671;27;83517;-64
2023/03/02 03:47:38;;;;;;;32.83;19.85;;;22.70;38.50;;;;;;6255110;27;86132;-69
2023/03/02 03:50:41;;;;;;;32.05;20.17;;;22.80;38.60;;;;;;6239052;27;84266;-68
2023/03/02 03:53:41;;;;;;;34.17;19.95;;;22.80;38.80;;;;;;6258854;27;82974;-70
2023/03/02 03:56:42;;;;;;;30.25;19.02;;;22.80;39.70;;;;;;6263785;27;83701;-70
2023/03/02 03:59:43;;;;;;;33.17;19.77;;;22.80;39.00;;;;;;6247767;27;84745;-68
2023/03/02 04:02:43;;;;;;;37.03;21.30;;;22.70;38.90;;;;;;6272568;27;83161;-68
2023/03/02 04:05:45;;;;;;;31.98;19.83;;;22.80;38.90;;;;;;6253025;27;86057;-67
2023/03/02 04:08:46;;;;;;;33.53;21.02;;;22.80;38.60;;;;;;6244484;27;85837;-58
2023/03/02 04:11:47;;;;;;;35.95;21.27;;;22.80;38.40;;;;;;6267310;27;83452;-59
2023/03/02 04:14:48;;;;;;;32.95;20.88;;;22.80;37.80;;;;;;6246512;27;84780;-58
2023/03/02 04:17:49;;;;;;;38.13;22.42;;;22.80;37.50;;;;;;6250558;27;86083;-58
2023/03/02 04:20:52;;;;;;;34.65;22.30;;;22.90;37.40;;;;;;6239610;27;86012;-57
2023/03/02 04:23:53;;;;;;;38.10;23.08;;;22.90;37.00;;;;;;6242166;28;85600;-58
2023/03/02 04:26:55;;;;;;;38.78;23.27;;;23.00;36.80;;;;;;6242038;27;86156;-59
2023/03/02 04:29:56;;;;;;;36.25;22.45;;;23.00;36.60;;;;;;6229979;27;86120;-59
2023/03/02 04:32:56;;;;;;;39.35;22.30;;;23.10;36.40;;;;;;6253820;27;85834;-59
2023/03/02 04:35:58;;;;;;;37.60;23.27;;;23.20;36.80;;;;;;6227625;27;85604;-59
2023/03/02 04:38:59;;;;;;;37.70;22.85;;;23.20;36.10;;;;;;6252611;27;85961;-58
2023/03/02 04:42:00;;;;;;;36.80;23.48;;;23.20;35.80;;;;;;6256918;27;83228;-58
2023/03/02 04:45:00;;;;;;;39.72;23.67;;;23.20;35.50;;;;;;6258675;27;83053;-57
2023/03/02 04:48:01;;;;;;;39.28;23.38;;;23.30;35.70;;;;;;6257990;27;83071;-59
2023/03/02 04:51:01;;;;;;;38.75;24.52;;;23.30;35.50;;;;;;6271256;27;82837;-59
2023/03/02 04:54:02;;;;;;;38.70;23.67;;;23.30;35.20;;;;;;6271298;27;83951;-58
2023/03/02 04:57:02;;;;;;;37.50;23.35;;;23.40;34.90;;;;;;6258206;27;83638;-59
2023/03/02 05:00:03;;;;;;;41.53;23.98;;;23.40;35.00;;;;;;6267153;27;83760;-61
2023/03/02 05:03:04;;;;;;;45.85;24.25;;;23.40;35.30;;;;;;6261267;27;85460;-59
2023/03/02 05:06:05;;;;;;;40.20;24.63;;;23.50;35.40;;;;;;6259525;27;82948;-60
2023/03/02 05:09:05;;;;;;;42.00;24.15;;;23.50;35.60;;;;;;6260278;27;83488;-65
2023/03/02 05:12:06;;;;;;;41.38;22.98;;;23.50;35.90;;;;;;6252358;27;83269;-64
2023/03/02 05:15:06;;;;;;;42.08;22.70;;;23.60;36.00;;;;;;6256235;27;83884;-67
2023/03/02 05:18:07;;;;;;;36.42;23.00;;;23.60;36.60;;;;;;6263678;27;83626;-66
2023/03/02 05:21:07;;;;;;;37.80;22.90;;;23.60;36.50;;;;;;6267061;27;87589;-63
2023/03/02 05:24:08;;;;;;;46.05;22.58;;;23.60;36.50;;;;;;6264947;27;83780;-63
2023/03/02 05:27:08;;;;;;;42.40;23.42;;;23.60;36.20;;;;;;6264515;27;83253;-64
2023/03/02 05:30:09;;;;;;;45.05;24.90;;;23.60;36.40;;;;;;6261821;27;85269;-63
2023/03/02 05:33:09;;;;;;;40.58;25.13;;;23.60;36.40;;;;;;6258750;27;83937;-63
2023/03/02 05:36:10;;;;;;;38.10;24.40;;;23.60;36.70;;;;;;6238137;27;84083;-65
2023/03/02 05:39:10;;;;;;;39.38;24.27;;;23.60;36.30;;;;;;6233932;27;87068;-55
2023/03/02 05:42:11;;;;;;;46.55;25.73;;;23.70;36.20;;;;;;6261465;27;83260;-56
2023/03/02 05:45:11;;;;;;;52.33;26.17;;;23.70;36.00;;;;;;6266002;27;83189;-56
2023/03/02 05:48:12;;;;;;;49.25;27.02;;;23.70;36.00;;;;;;6259608;27;83370;-63
2023/03/02 05:51:12;;;;;;;43.88;26.23;;;23.70;36.90;;;;;;6261613;27;84562;-56
2023/03/02 05:54:14;;;;;;;45.83;26.77;;;23.70;36.30;;;;;;6265099;27;84326;-59
2023/03/02 05:57:15;;;;;;;42.45;25.35;;;23.70;36.30;;;;;;6262660;27;83007;-58
2023/03/02 06:00:15;;;;;;;41.83;25.08;;;23.70;36.50;;;;;;6262272;27;84789;-56
2023/03/02 06:03:16;;;;;;;42.47;26.88;;;23.80;36.60;;;;;;6263758;27;84121;-58
2023/03/02 06:06:16;;;;;;;45.92;26.45;;;23.80;36.80;;;;;;6178461;27;89216;-55
2023/03/02 06:09:17;;;;;;;50.10;26.95;;;23.80;36.80;;;;;;6202959;27;84681;-59
2023/03/02 06:12:17;;;;;;;47.72;25.83;;;23.80;36.80;;;;;;6260564;27;84316;-59
2023/03/02 06:15:18;;;;;;;49.05;26.45;;;23.80;37.30;;;;;;6259875;27;85512;-60
2023/03/02 06:18:18;;;;;;;44.30;23.58;;;23.80;36.90;;;;;;6250133;27;84616;-57
2023/03/02 06:21:19;;;;;;;31.50;19.95;;;23.70;38.20;;;;;;6266472;27;85408;-55
2023/03/02 06:24:19;;;;;;;31.33;19.52;;;23.60;40.20;;;;;;6265305;27;87458;-55
2023/03/02 06:27:20;;;;;;;28.50;16.77;;;23.50;40.70;;;;;;6264409;27;88966;-51
2023/03/02 06:30:20;;;;;;;26.08;16.85;;;23.40;41.30;;;;;;6254296;27;83236;-55
2023/03/02 06:33:21;;;;;;;29.13;17.42;;;23.30;41.80;;;;;;6259145;27;88626;-53
2023/03/02 06:36:22;;;;;;;25.23;14.75;;;23.40;42.00;;;;;;6258775;27;82824;-54
2023/03/02 06:39:22;;;;;;;25.90;14.93;;;23.20;42.50;;;;;;6265216;27;83592;-54
2023/03/02 06:42:23;;;;;;;26.02;17.30;;;23.10;42.70;;;;;;6238444;27;83982;-60
2023/03/02 06:45:23;;;;;;;28.50;15.95;;;23.00;42.60;;;;;;6255469;27;88050;-60
2023/03/02 06:48:24;;;;;;;25.00;16.42;;;23.00;43.60;;;;;;6257975;27;83082;-60
2023/03/02 06:51:24;;;;;;;28.17;14.52;;;22.90;43.60;;;;;;6266102;27;85508;-58
2023/03/02 06:54:25;;;;;;;27.33;15.60;;;23.00;43.80;;;;;;6265648;27;83959;-60
2023/03/02 06:57:32;;;;;;;23.77;13.82;;;23.00;44.10;;;;;;6265346;27;83269;-58
2023/03/02 07:00:32;;;;;;;25.70;16.02;;;22.90;44.30;;;;;;6259411;27;84097;-62
2023/03/02 07:03:34;;;;;;;24.05;15.85;;;22.90;44.60;;;;;;6259294;27;83661;-58
2023/03/02 07:06:35;;;;;;;30.35;16.13;;;22.80;44.60;;;;;;6250294;27;83973;-60
2023/03/02 07:09:35;;;;;;;31.42;16.42;;;22.80;45.00;;;;;;6259008;27;83642;-53
2023/03/02 07:12:36;;;;;;;29.77;17.05;;;22.80;45.00;;;;;;6253016;27;83633;-50
2023/03/02 07:15:37;;;;;;;29.15;16.80;;;22.80;44.90;;;;;;6258361;27;83288;-54
2023/03/02 07:18:37;;;;;;;29.92;17.05;;;22.80;45.00;;;;;;6255327;27;83685;-55
2023/03/02 07:21:38;;;;;;;30.70;16.45;;;22.90;45.40;;;;;;6262913;27;83035;-54
2023/03/02 07:24:38;;;;;;;32.17;18.13;;;22.90;45.30;;;;;;6264805;27;83523;-54
2023/03/02 07:27:39;;;;;;;30.88;17.40;;;23.00;45.00;;;;;;6262345;27;83196;-55
2023/03/02 07:30:39;;;;;;;28.42;17.63;;;23.00;45.20;;;;;;6257173;27;84679;-51
2023/03/02 07:33:40;;;;;;;27.73;17.52;;;23.10;45.10;;;;;;6254715;27;83838;-50
2023/03/02 07:36:40;;;;;;;31.08;18.25;;;23.20;45.30;;;;;;6258261;27;83368;-53
2023/03/02 07:39:41;;;;;;;29.70;17.95;;;23.10;45.30;;;;;;6271501;27;85816;-55
2023/03/02 07:42:41;;;;;;;31.95;17.08;;;23.10;45.40;;;;;;6255234;27;84855;-54
2023/03/02 07:45:42;;;;;;;26.98;16.75;;;23.10;45.90;;;;;;6236757;27;84859;-49
2023/03/02 07:48:43;;;;;;;30.95;16.92;;;23.10;45.50;;;;;;6253302;27;83647;-59
2023/03/02 07:51:43;;;;;;;29.80;15.40;;;23.20;45.90;;;;;;6264843;27;84633;-59
2023/03/02 07:54:44;;;;;;;27.40;15.00;;;23.30;45.80;;;;;;6266489;27;83099;-58
2023/03/02 07:57:44;;;;;;;28.38;16.15;;;23.30;46.10;;;;;;6260024;27;84327;-60
2023/03/02 08:00:45;;;;;;;23.40;14.60;;;23.30;46.00;;;;;;6249960;27;83570;-59
2023/03/02 08:03:45;;;;;;;84.63;43.88;;;23.30;46.20;;;;;;6260023;27;83008;-59
2023/03/02 08:06:46;;;;;;;123.93;66.13;;;23.40;46.30;;;;;;6257318;27;86064;-53
2023/03/02 08:09:46;;;;;;;155.18;77.88;;;23.50;46.00;;;;;;6259723;27;83001;-49
2023/03/02 08:12:47;;;;;;;193.15;95.15;;;23.40;45.90;;;;;;6251283;27;83010;-51
2023/03/02 08:15:47;;;;;;;224.93;111.28;;;23.50;45.70;;;;;;6248315;27;86591;-52
2023/03/02 08:18:48;;;;;;;209.48;102.22;;;23.50;45.80;;;;;;6260952;27;85596;-49
2023/03/02 08:21:49;;;;;;;165.52;86.05;;;23.60;45.60;;;;;;6255334;27;91024;-53
2023/03/02 08:24:49;;;;;;;149.23;71.20;;;23.50;45.20;;;;;;6261762;27;85731;-51
2023/03/02 08:27:50;;;;;;;148.85;74.25;;;23.60;45.40;;;;;;6257766;27;85776;-53
2023/03/02 08:30:50;;;;;;;154.10;80.32;;;23.70;45.60;;;;;;6249153;27;84255;-52
2023/03/02 08:33:51;;;;;;;175.07;87.18;;;23.80;45.10;;;;;;6265374;27;83846;-54
2023/03/02 08:36:51;;;;;;;215.63;102.72;;;23.80;45.40;;;;;;6260766;27;83381;-53
2023/03/02 08:39:52;;;;;;;247.82;118.10;;;23.80;45.50;;;;;;6252773;27;85823;-53
2023/03/02 08:42:55;;;;;;;270.63;128.75;;;23.80;45.20;;;;;;6265365;27;90338;-60
2023/03/02 08:45:56;;;;;;;225.88;108.88;;;23.80;45.50;;;;;;6261256;27;87286;-61
2023/03/02 08:48:57;;;;;;;199.93;94.43;;;23.90;45.40;;;;;;6255737;27;85781;-61
2023/03/02 08:51:57;;;;;;;180.50;86.72;;;23.90;45.30;;;;;;6265942;27;85284;-62
2023/03/02 08:54:58;;;;;;;150.63;73.93;;;24.00;45.50;;;;;;6273813;27;85912;-63
2023/03/02 08:57:58;;;;;;;130.45;62.95;;;24.00;45.60;;;;;;6263812;27;83546;-62
2023/03/02 09:00:59;;;;;;;110.35;52.47;;;24.20;45.60;;;;;;6262635;27;83141;-53
2023/03/02 09:03:59;;;;;;;99.90;49.75;;;24.30;45.80;;;;;;6252522;27;83090;-55
2023/03/02 09:07:00;;;;;;;95.88;46.38;;;24.40;45.80;;;;;;6263228;27;83584;-57
2023/03/02 09:10:00;;;;;;;84.07;40.25;;;24.40;45.80;;;;;;6261590;27;83384;-55
2023/03/02 09:13:01;;;;;;;73.70;37.35;;;24.40;45.90;;;;;;6249427;27;83834;-54
2023/03/02 09:16:02;;;;;;;60.80;32.83;;;24.30;46.30;;;;;;6264685;27;83319;-55
2023/03/02 09:19:02;;;;;;;62.63;31.00;;;24.40;46.30;;;;;;6255036;27;83284;-54
2023/03/02 09:22:03;;;;;;;58.10;30.15;;;24.40;46.60;;;;;;6263265;27;83787;-55
2023/03/02 09:25:03;;;;;;;50.38;26.65;;;24.40;46.50;;;;;;6238942;27;84132;-54
2023/03/02 09:28:04;;;;;;;46.75;25.42;;;24.40;46.20;;;;;;6265997;27;83201;-50
2023/03/02 09:31:04;;;;;;;46.53;25.48;;;24.40;46.00;;;;;;6267327;27;84290;-66
2023/03/02 09:34:05;;;;;;;45.70;24.85;;;24.50;46.50;;;;;;6256219;27;83095;-56
2023/03/02 09:37:05;;;;;;;40.13;22.88;;;24.50;46.40;;;;;;6250390;27;84815;-50
2023/03/02 09:40:06;;;;;;;41.65;23.13;;;24.50;46.00;;;;;;6262256;27;83465;-54
2023/03/02 09:43:07;;;;;;;36.97;21.35;;;24.50;45.50;;;;;;6267873;27;85596;-55
2023/03/02 09:46:07;;;;;;;36.53;21.35;;;24.60;46.10;;;;;;6252035;27;83880;-55
2023/03/02 09:49:09;;;;;;;32.83;19.30;;;24.70;45.20;;;;;;6262945;27;83468;-51
2023/03/02 09:52:10;;;;;;;34.90;19.70;;;24.80;45.80;;;;;;6256280;27;83764;-52
2023/03/02 09:55:11;;;;;;;38.22;19.50;;;24.90;45.50;;;;;;6270630;27;83515;-51
2023/03/02 09:58:11;;;;;;;28.27;18.02;;;24.80;45.10;;;;;;6271236;27;83535;-54
2023/03/02 10:01:12;;;;;;;26.52;16.65;;;24.90;45.20;;;;;;6247055;27;83176;-51
2023/03/02 10:04:12;;;;;;;27.83;17.25;;;24.90;45.10;;;;;;6273159;27;83940;-47
2023/03/02 10:07:13;;;;;;;30.08;17.15;;;25.00;45.30;;;;;;6273496;27;83460;-53
2023/03/02 10:10:13;;;;;;;26.92;15.30;;;25.10;45.40;;;;;;6274987;27;83364;-52
2023/03/02 10:13:14;;;;;;;24.30;14.30;;;25.10;45.70;;;;;;6267802;27;84708;-55
2023/03/02 10:16:14;;;;;;;28.05;15.43;;;25.10;45.50;;;;;;6273258;27;83356;-48
2023/03/02 10:19:15;;;;;;;29.50;14.05;;;25.20;45.70;;;;;;6272122;27;82880;-51
2023/03/02 10:22:15;;;;;;;26.67;14.50;;;25.20;45.60;;;;;;6274469;27;84623;-53
2023/03/02 10:25:16;;;;;;;22.25;13.73;;;25.30;45.80;;;;;;6273744;27;82973;-52
2023/03/02 10:28:16;;;;;;;24.50;13.27;;;25.30;45.40;;;;;;6272505;27;83462;-52
2023/03/02 10:31:17;;;;;;;22.05;13.20;;;25.40;45.60;;;;;;6267576;27;84139;-51
2023/03/02 10:34:17;;;;;;;24.92;13.20;;;25.40;45.70;;;;;;6268397;27;84768;-53
2023/03/02 10:37:18;;;;;;;20.10;12.30;;;25.50;46.00;;;;;;6271088;27;83139;-55
2023/03/02 10:40:19;;;;;;;23.05;12.05;;;25.50;46.00;;;;;;6269795;27;83590;-53
2023/03/02 10:43:19;;;;;;;21.77;11.10;;;25.50;46.10;;;;;;6273963;27;83900;-55
2023/03/02 10:46:20;;;;;;;18.67;10.15;;;25.60;46.20;;;;;;6271749;27;85681;-53
2023/03/02 10:49:20;;;;;;;16.80;10.52;;;25.60;46.20;;;;;;6268121;27;83078;-51
2023/03/02 10:52:21;;;;;;;15.05;9.88;;;25.60;46.00;;;;;;6268598;27;83368;-51
2023/03/02 10:55:21;;;;;;;19.02;10.48;;;25.70;46.70;;;;;;6276846;27;83426;-53
2023/03/02 10:58:24;;;;;;;15.05;9.85;;;25.70;46.30;;;;;;6273509;27;85171;-53
2023/03/02 11:01:25;;;;;;;18.83;9.30;;;25.70;46.20;;;;;;6252107;27;83179;-57
2023/03/02 11:04:25;;;;;;;17.10;10.02;;;25.70;46.20;;;;;;6277693;27;80728;-53
2023/03/02 11:07:26;;;;;;;14.05;9.30;;;25.70;46.10;;;;;;6249799;27;87939;-61
2023/03/02 11:10:27;;;;;;;15.60;9.60;;;25.70;46.40;;;;;;6258242;27;86618;-52
2023/03/02 11:13:28;;;;;;;16.23;8.32;;;25.80;46.40;;;;;;6262064;27;81579;-54
2023/03/02 11:16:28;;;;;;;14.43;9.05;;;25.80;47.50;;;;;;6264817;27;80439;-54
2023/03/02 11:19:29;;;;;;;15.18;8.80;;;25.80;48.10;;;;;;6265289;27;81675;-54
2023/03/02 11:22:29;;;;;;;14.98;9.00;;;25.80;48.60;;;;;;6260723;27;80941;-50
2023/03/02 11:25:30;;;;;;;15.38;8.02;;;25.80;48.90;;;;;;6258873;27;83771;-53
2023/03/02 11:28:31;;;;;;;10.63;7.25;;;25.80;49.60;;;;;;6253180;27;80812;-55
2023/03/02 11:31:32;;;;;;;9.38;6.70;;;25.80;50.30;;;;;;6241363;27;83342;-56
2023/03/02 11:34:32;;;;;;;18.35;8.38;;;25.80;50.30;;;;;;6262742;27;83816;-53
2023/03/02 11:37:33;;;;;;;17.55;9.50;;;25.80;50.50;;;;;;6266374;27;80977;-56
2023/03/02 11:40:33;;;;;;;24.30;11.05;;;25.80;50.20;;;;;;6258850;27;80779;-55
2023/03/02 11:43:34;;;;;;;30.73;12.27;;;25.90;50.90;;;;;;6268032;27;85722;-55
2023/03/02 11:46:34;;;;;;;26.42;12.35;;;25.90;50.80;;;;;;6257300;27;85816;-54
2023/03/02 11:49:35;;;;;;;33.53;13.65;;;25.90;50.90;;;;;;6255981;27;84344;-59
2023/03/02 11:52:35;;;;;;;33.33;14.57;;;25.90;51.00;;;;;;6261707;27;83877;-55
2023/03/02 11:55:36;;;;;;;32.08;13.90;;;25.90;50.90;;;;;;6260265;27;83339;-52
2023/03/02 11:58:36;;;;;;;36.70;14.68;;;25.90;50.50;;;;;;6255070;27;83125;-54
2023/03/02 12:01:39;;;;;;;27.20;12.63;;;25.90;50.20;;;;;;6258029;27;82864;-53
2023/03/02 12:04:39;;;;;;;30.92;12.35;;;25.90;49.50;;;;;;6257374;27;83352;-53
2023/03/02 12:07:40;;;;;;;24.38;10.27;;;25.90;49.70;;;;;;6252584;27;84280;-54
2023/03/02 12:10:40;;;;;;;23.33;11.70;;;26.00;49.30;;;;;;6263079;27;84043;-53
2023/03/02 12:13:41;;;;;;;22.40;9.65;;;26.00;49.30;;;;;;6251350;27;84632;-52
2023/03/02 12:16:41;;;;;;;20.33;9.98;;;26.00;49.00;;;;;;6262775;27;85577;-54
2023/03/02 12:19:43;;;;;;;20.20;9.20;;;26.00;48.70;;;;;;6265183;27;83014;-54
2023/03/02 12:22:44;;;;;;;20.10;9.23;;;26.10;48.80;;;;;;6264007;27;83037;-65
2023/03/02 12:25:50;;;;;;;16.02;8.02;;;26.00;48.70;;;;;;6259519;27;81190;-63
2023/03/02 12:28:50;;;;;;;13.23;7.65;;;26.10;48.60;;;;;;6261733;27;80638;-60
2023/03/02 12:31:51;;;;;;;14.60;7.95;;;26.10;48.70;;;;;;6263596;27;80897;-63
2023/03/02 12:34:51;;;;;;;13.65;8.35;;;26.10;48.50;;;;;;6266170;27;81001;-62
2023/03/02 12:37:55;;;;;;;15.82;7.85;;;26.10;48.20;;;;;;6265848;27;82070;-63
2023/03/02 12:40:56;;;;;;;12.77;7.05;;;26.10;48.20;;;;;;6266874;27;80459;-64
2023/03/02 12:43:57;;;;;;;16.67;8.32;;;26.10;47.70;;;;;;6261971;27;80828;-64
2023/03/02 12:46:57;;;;;;;12.93;6.65;;;26.10;47.50;;;;;;6266105;27;80892;-64
2023/03/02 12:49:58;;;;;;;14.23;7.55;;;26.10;47.30;;;;;;6254525;27;81906;-64
2023/03/02 12:52:58;;;;;;;12.73;7.38;;;26.00;46.90;;;;;;6261048;27;81000;-63
2023/03/02 12:55:59;;;;;;;15.68;7.03;;;26.00;46.90;;;;;;6256435;27;80441;-70
2023/03/02 12:58:59;;;;;;;14.18;6.88;;;26.10;47.60;;;;;;6255527;27;82047;-63
2023/03/02 13:02:00;;;;;;;9.15;6.43;;;26.10;48.20;;;;;;6261945;27;81252;-59
2023/03/02 13:05:01;;;;;;;11.02;6.05;;;26.10;48.00;;;;;;6267004;27;80324;-58
2023/03/02 13:08:01;;;;;;;8.98;5.88;;;26.10;47.90;;;;;;6263269;27;83573;-68
2023/03/02 13:11:02;;;;;;;11.60;6.05;;;26.10;48.30;;;;;;6259539;27;81526;-61
2023/03/02 13:14:03;;;;;;;10.25;6.40;;;26.10;48.00;;;;;;6255798;27;82136;-59
2023/03/02 13:17:03;;;;;;;10.98;5.95;;;26.10;47.80;;;;;;6268942;27;81878;-59
2023/03/02 13:20:04;;;;;;;13.90;7.03;;;26.10;47.30;;;;;;6251998;27;80491;-59
2023/03/02 13:23:04;;;;;;;10.10;6.63;;;26.10;47.20;;;;;;6264989;27;87491;-59
2023/03/02 13:26:05;;;;;;;13.32;7.55;;;26.10;47.30;;;;;;6271355;27;80364;-59
2023/03/02 13:29:05;;;;;;;9.82;6.10;;;26.10;47.30;;;;;;6268439;27;81069;-58
2023/03/02 13:32:06;;;;;;;12.25;6.63;;;26.10;47.40;;;;;;6257602;27;80161;-61
2023/03/02 13:35:06;;;;;;;12.55;5.97;;;26.10;47.60;;;;;;6254308;27;81756;-60
2023/03/02 13:38:07;;;;;;;9.60;6.45;;;26.10;47.90;;;;;;6264575;27;81916;-60
2023/03/02 13:41:07;;;;;;;8.73;5.53;;;26.10;47.90;;;;;;6267846;27;80743;-61
2023/03/02 13:44:08;;;;;;;9.77;6.35;;;26.00;47.70;;;;;;6246657;27;80211;-61
2023/03/02 13:47:08;;;;;;;8.98;5.97;;;26.00;47.20;;;;;;6268145;27;87575;-59
2023/03/02 13:50:09;;;;;;;8.77;5.63;;;26.00;47.20;;;;;;6270369;27;80430;-61
2023/03/02 13:53:09;;;;;;;10.77;5.78;;;26.00;46.80;;;;;;6248044;27;82000;-61
2023/03/02 13:56:10;;;;;;;8.48;6.15;;;26.00;46.90;;;;;;6261721;27;82493;-61
2023/03/02 13:59:10;;;;;;;9.50;6.15;;;26.00;46.30;;;;;;6252417;27;80871;-62
2023/03/02 14:02:11;;;;;;;9.52;5.90;;;25.90;46.30;;;;;;6256337;27;80512;-60
2023/03/02 14:05:11;;;;;;;13.55;7.35;;;25.90;46.30;;;;;;6259944;27;80636;-61
2023/03/02 14:08:12;;;;;;;9.80;5.72;;;25.90;45.70;;;;;;6275112;27;80309;-62
2023/03/02 14:11:12;;;;;;;12.02;6.50;;;25.90;46.00;;;;;;6257798;27;81391;-60
2023/03/02 14:14:13;;;;;;;11.60;7.38;;;25.90;45.70;;;;;;6259584;27;80593;-62
2023/03/02 14:17:13;;;;;;;10.10;5.70;;;25.90;45.70;;;;;;6271618;27;82139;-61
2023/03/02 14:20:14;;;;;;;8.73;5.82;;;25.90;45.70;;;;;;6263969;27;80724;-61
2023/03/02 14:23:14;;;;;;;7.63;5.65;;;25.80;45.70;;;;;;6267048;27;80553;-61
2023/03/02 14:26:15;;;;;;;9.30;5.47;;;25.80;45.70;;;;;;6254715;27;83009;-63
2023/03/02 14:29:15;;;;;;;8.80;4.95;;;25.80;45.80;;;;;;6267629;27;81178;-62
2023/03/02 14:32:16;;;;;;;17.65;6.75;;;25.70;45.90;;;;;;6273326;27;80492;-62
2023/03/02 14:35:17;;;;;;;8.75;5.97;;;25.70;45.60;;;;;;6267985;27;81783;-60
2023/03/02 14:38:17;;;;;;;12.13;7.00;;;25.70;45.70;;;;;;6264174;27;80993;-62
2023/03/02 14:41:18;;;;;;;10.52;6.22;;;25.70;45.00;;;;;;6278747;27;80306;-64
2023/03/02 14:44:18;;;;;;;8.98;5.75;;;25.70;44.70;;;;;;6266152;27;85073;-62
2023/03/02 14:47:20;;;;;;;10.13;5.85;;;25.70;44.60;;;;;;6265176;27;85511;-62
2023/03/02 14:50:21;;;;;;;12.50;5.80;;;25.70;44.50;;;;;;6265906;27;85238;-62
2023/03/02 14:53:21;;;;;;;11.50;6.32;;;25.70;43.70;;;;;;6264744;27;80943;-61
2023/03/02 14:56:22;;;;;;;8.93;5.93;;;25.70;43.20;;;;;;6260797;27;81199;-62
2023/03/02 14:59:22;;;;;;;10.93;5.97;;;25.70;42.60;;;;;;6251399;27;84521;-62
2023/03/02 15:02:23;;;;;;;15.80;6.57;;;25.70;42.00;;;;;;6266451;27;81317;-62
2023/03/02 15:05:23;;;;;;;9.13;6.47;;;25.60;41.70;;;;;;6260881;27;80837;-63
2023/03/02 15:08:24;;;;;;;9.90;6.68;;;25.80;41.10;;;;;;6261944;27;81600;-63
2023/03/02 15:11:25;;;;;;;9.88;5.85;;;26.40;39.80;;;;;;6262398;27;80713;-62
2023/03/02 15:14:25;;;;;;;9.10;6.03;;;26.70;39.10;;;;;;6269081;27;80173;-63
2023/03/02 15:17:26;;;;;;;8.60;5.72;;;26.50;39.30;;;;;;6264489;27;81818;-65